createdAt,value
2023-12-29T00:01:38.262Z,45.93
2023-12-29T00:04:25.637Z,45.51
2023-12-29T00:07:14.762Z,45.36
2023-12-29T00:10:02.566Z,45.68
2023-12-29T00:12:52.042Z,45.25
2023-12-29T00:15:40.024Z,45.55
2023-12-29T00:18:27.879Z,45.22
2023-12-29T00:21:19.062Z,45.15
2023-12-29T00:24:08.416Z,45.51
2023-12-29T00:26:56.035Z,45.98
2023-12-29T00:29:43.907Z,45.33
2023-12-29T00:32:32.009Z,46.05
2023-12-29T00:35:21.197Z,45.87
2023-12-29T00:38:08.975Z,45.63
2023-12-29T00:41:01.186Z,46.07
2023-12-29T00:43:49.749Z,45.71
2023-12-29T00:46:38.587Z,45.90
2023-12-29T00:49:28.044Z,46.14
2023-12-29T00:52:16.107Z,45.36
2023-12-29T00:55:05.224Z,46.09
2023-12-29T00:57:53.023Z,45.78
2023-12-29T01:00:40.936Z,45.41
2023-12-29T01:03:29.054Z,45.31
2023-12-29T01:06:17.125Z,45.46
2023-12-29T01:09:05.144Z,45.81
2023-12-29T01:11:52.477Z,45.98
2023-12-29T01:14:40.329Z,45.91
2023-12-29T01:17:29.851Z,45.68
2023-12-29T01:20:17.307Z,45.23
2023-12-29T01:23:06.682Z,45.84
2023-12-29T01:25:54.631Z,45.58
2023-12-29T01:28:42.672Z,45.87
2023-12-29T01:31:33.846Z,45.96
2023-12-29T01:34:22.040Z,45.65
2023-12-29T01:37:09.636Z,46.07
2023-12-29T01:39:58.018Z,45.94
2023-12-29T01:42:45.809Z,45.84
2023-12-29T01:45:40.394Z,45.84
2023-12-29T01:48:33.399Z,45.93
2023-12-29T01:51:25.007Z,45.94
2023-12-29T01:54:13.882Z,46.04
2023-12-29T01:57:03.261Z,45.76
2023-12-29T01:59:52.753Z,45.93
2023-12-29T02:02:41.316Z,45.62
2023-12-29T02:05:29.410Z,45.13
2023-12-29T02:08:17.365Z,45.35
2023-12-29T02:11:06.774Z,45.46
2023-12-29T02:13:55.156Z,45.98
2023-12-29T02:16:54.612Z,45.57
2023-12-29T02:19:46.178Z,45.46
2023-12-29T02:22:34.490Z,45.05
2023-12-29T02:25:22.493Z,45.17
2023-12-29T02:28:24.379Z,45.69
2023-12-29T02:31:22.285Z,45.37
2023-12-29T02:34:12.963Z,45.38
2023-12-29T02:37:07.875Z,45.50
2023-12-29T02:39:58.729Z,45.28
2023-12-29T02:42:54.607Z,45.98
2023-12-29T02:45:43.074Z,45.29
2023-12-29T02:48:36.002Z,45.62
2023-12-29T02:51:26.829Z,45.05
2023-12-29T02:54:14.878Z,45.35
2023-12-29T02:57:02.222Z,45.67
2023-12-29T02:59:50.622Z,45.54
2023-12-29T03:02:38.397Z,45.89
2023-12-29T03:05:26.294Z,45.92
2023-12-29T03:08:13.908Z,45.80
2023-12-29T03:11:01.997Z,45.91
2023-12-29T03:13:49.963Z,46.27
2023-12-29T03:16:38.316Z,45.89
2023-12-29T03:19:26.881Z,46.22
2023-12-29T03:22:15.695Z,45.74
2023-12-29T03:25:03.102Z,46.01
2023-12-29T03:27:51.065Z,46.17
2023-12-29T03:30:39.780Z,46.25
2023-12-29T03:33:31.252Z,45.94
2023-12-29T03:36:23.180Z,46.22
2023-12-29T03:39:11.003Z,46.22
2023-12-29T03:41:58.312Z,46.10
2023-12-29T03:44:46.122Z,45.80
2023-12-29T03:47:33.911Z,46.10
2023-12-29T03:50:21.807Z,45.84
2023-12-29T03:53:12.710Z,46.03
2023-12-29T03:56:00.371Z,45.97
2023-12-29T03:58:51.334Z,45.56
2023-12-29T04:01:37.959Z,45.63
2023-12-29T04:04:24.999Z,45.31
2023-12-29T04:07:11.548Z,45.73
2023-12-29T04:10:02.542Z,46.26
2023-12-29T04:12:49.007Z,46.34
2023-12-29T04:15:36.502Z,46.06
2023-12-29T04:18:25.363Z,46.03
2023-12-29T04:21:18.366Z,46.29
2023-12-29T04:24:06.035Z,46.00
2023-12-29T04:26:54.896Z,46.17
2023-12-29T04:29:42.438Z,45.95
2023-12-29T04:32:30.364Z,45.84
2023-12-29T04:35:19.040Z,46.00
2023-12-29T04:38:08.263Z,46.07
2023-12-29T04:40:55.643Z,46.25
2023-12-29T04:43:43.467Z,46.06
2023-12-29T04:46:30.715Z,46.03
2023-12-29T04:49:18.478Z,46.37
2023-12-29T04:52:06.665Z,46.64
2023-12-29T04:54:55.009Z,46.32
2023-12-29T04:57:44.825Z,46.27
2023-12-29T05:00:32.537Z,46.19
2023-12-29T05:03:21.043Z,46.09
2023-12-29T05:06:08.813Z,46.61
2023-12-29T05:08:56.914Z,46.25
2023-12-29T05:11:46.000Z,46.22
2023-12-29T05:14:34.356Z,46.21
2023-12-29T05:17:21.949Z,46.25
2023-12-29T05:20:10.353Z,46.45
2023-12-29T05:22:58.553Z,46.64
2023-12-29T05:25:48.057Z,46.44
2023-12-29T05:28:35.180Z,46.49
2023-12-29T05:31:22.620Z,46.37
2023-12-29T05:34:09.974Z,46.60
2023-12-29T05:36:59.650Z,46.77
2023-12-29T05:39:47.958Z,46.68
2023-12-29T05:42:35.710Z,46.75
2023-12-29T05:45:23.473Z,46.67
2023-12-29T05:48:12.237Z,46.56
2023-12-29T05:50:59.784Z,46.41
2023-12-29T05:53:47.350Z,47.03
2023-12-29T05:56:34.876Z,46.82
2023-12-29T05:59:22.274Z,47.07
2023-12-29T06:02:08.790Z,46.88
2023-12-29T06:04:54.813Z,46.54
2023-12-29T06:07:41.106Z,46.93
2023-12-29T06:10:27.323Z,46.67
2023-12-29T06:13:13.619Z,47.13
2023-12-29T06:15:59.659Z,46.62
2023-12-29T06:18:45.948Z,46.91
2023-12-29T06:21:32.236Z,46.89
2023-12-29T06:24:18.491Z,46.69
2023-12-29T06:27:05.016Z,46.48
2023-12-29T06:29:51.491Z,46.64
2023-12-29T06:32:37.985Z,46.58
2023-12-29T06:35:24.077Z,46.98
2023-12-29T06:38:11.439Z,46.73
2023-12-29T06:40:57.528Z,46.74
2023-12-29T06:43:43.569Z,47.18
2023-12-29T06:46:29.563Z,46.95
2023-12-29T06:49:15.825Z,47.06
2023-12-29T06:52:02.039Z,46.82
2023-12-29T06:54:48.244Z,46.90
2023-12-29T06:57:34.178Z,46.65
2023-12-29T07:00:20.067Z,46.87
2023-12-29T07:03:06.514Z,46.57
2023-12-29T07:05:52.297Z,46.98
2023-12-29T07:08:38.353Z,46.67
2023-12-29T07:11:24.525Z,46.81
2023-12-29T07:14:10.321Z,46.88
2023-12-29T07:16:56.235Z,46.80
2023-12-29T07:19:42.277Z,46.86
2023-12-29T07:22:28.143Z,46.65
2023-12-29T07:25:15.272Z,46.63
2023-12-29T07:28:01.633Z,46.68
2023-12-29T07:30:48.987Z,46.96
2023-12-29T07:33:35.397Z,46.75
2023-12-29T07:36:21.372Z,47.11
2023-12-29T07:39:07.701Z,46.80
2023-12-29T07:41:54.953Z,46.92
2023-12-29T07:44:43.031Z,46.74
2023-12-29T07:47:28.986Z,47.12
2023-12-29T07:50:14.892Z,47.18
2023-12-29T07:53:04.019Z,46.80
2023-12-29T07:55:53.565Z,46.86
2023-12-29T07:58:41.030Z,47.15
2023-12-29T08:01:29.536Z,46.76
2023-12-29T08:04:16.047Z,47.29
2023-12-29T08:07:02.082Z,47.03
2023-12-29T08:09:48.165Z,47.00
2023-12-29T08:12:37.475Z,46.92
2023-12-29T08:15:23.584Z,47.08
2023-12-29T08:18:09.646Z,46.93
2023-12-29T08:20:55.837Z,47.34
2023-12-29T08:23:41.583Z,47.57
2023-12-29T08:26:27.419Z,47.30
2023-12-29T08:29:16.320Z,47.06
2023-12-29T08:32:03.123Z,47.60
2023-12-29T08:34:49.163Z,47.24
2023-12-29T08:37:35.761Z,47.23
2023-12-29T08:40:21.718Z,47.90
2023-12-29T08:43:07.755Z,47.46
2023-12-29T08:45:53.989Z,47.44
2023-12-29T08:48:39.925Z,47.36
2023-12-29T08:51:25.991Z,46.96
2023-12-29T08:54:11.783Z,47.29
2023-12-29T08:56:57.746Z,47.96
2023-12-29T08:59:43.873Z,48.18
2023-12-29T09:02:30.097Z,47.62
2023-12-29T09:05:16.302Z,47.96
2023-12-29T09:08:02.833Z,48.01
2023-12-29T09:10:48.838Z,47.70
2023-12-29T09:13:34.901Z,48.39
2023-12-29T09:16:21.187Z,48.29
2023-12-29T09:19:18.097Z,47.72
2023-12-29T09:22:12.941Z,47.87
2023-12-29T09:24:58.955Z,48.12
2023-12-29T09:27:45.842Z,47.58
2023-12-29T09:30:31.928Z,47.85
2023-12-29T09:33:18.188Z,48.26
2023-12-29T09:36:05.303Z,48.13
2023-12-29T09:38:51.276Z,47.63
2023-12-29T09:41:41.159Z,47.90
2023-12-29T09:44:29.332Z,47.85
2023-12-29T09:47:17.709Z,48.53
2023-12-29T09:50:05.316Z,48.13
2023-12-29T09:52:51.544Z,48.13
2023-12-29T09:55:38.872Z,48.50
2023-12-29T09:58:26.660Z,48.53
2023-12-29T10:01:13.157Z,48.49
2023-12-29T10:03:59.458Z,48.20
2023-12-29T10:06:50.075Z,48.08
2023-12-29T10:09:38.800Z,47.84
2023-12-29T10:12:25.685Z,48.13
2023-12-29T10:15:39.452Z,47.86
2023-12-29T10:18:29.487Z,47.96
2023-12-29T10:21:40.752Z,48.06
2023-12-29T10:24:27.215Z,47.72
2023-12-29T10:27:14.285Z,47.81
2023-12-29T10:30:00.306Z,47.78
2023-12-29T10:32:51.899Z,47.83
2023-12-29T10:35:44.602Z,48.14
2023-12-29T10:38:33.411Z,48.07
2023-12-29T10:41:21.075Z,47.83
2023-12-29T10:44:10.266Z,47.66
2023-12-29T10:46:56.318Z,47.78
2023-12-29T10:49:42.738Z,47.54
2023-12-29T10:52:29.313Z,47.51
2023-12-29T10:55:16.497Z,47.43
2023-12-29T10:58:02.473Z,47.65
2023-12-29T11:00:48.780Z,47.66
2023-12-29T11:03:34.850Z,47.49
2023-12-29T11:06:20.732Z,47.69
2023-12-29T11:09:06.887Z,47.54
2023-12-29T11:11:53.398Z,47.49
2023-12-29T11:14:41.480Z,47.43
2023-12-29T11:17:27.878Z,47.23
2023-12-29T11:20:16.036Z,46.91
2023-12-29T11:23:02.869Z,47.44
2023-12-29T11:25:50.134Z,47.28
2023-12-29T11:28:36.635Z,47.11
2023-12-29T11:31:23.277Z,46.99
2023-12-29T11:34:17.763Z,46.96
2023-12-29T11:37:34.179Z,46.72
2023-12-29T11:40:23.097Z,46.74
2023-12-29T11:43:17.835Z,46.46
2023-12-29T11:46:04.103Z,46.21
2023-12-29T11:48:59.928Z,46.58
2023-12-29T11:51:50.519Z,46.27
2023-12-29T11:54:41.531Z,46.03
2023-12-29T11:57:34.797Z,46.19
2023-12-29T12:00:20.963Z,46.18
2023-12-29T12:03:27.261Z,45.69
2023-12-29T12:06:13.545Z,45.70
2023-12-29T12:09:19.644Z,44.28
2023-12-29T12:12:07.118Z,45.66
2023-12-29T12:14:54.547Z,45.58
2023-12-29T12:17:40.381Z,45.09
2023-12-29T12:20:27.358Z,45.37
2023-12-29T12:23:20.295Z,45.43
2023-12-29T12:26:06.959Z,45.65
2023-12-29T12:28:56.001Z,45.12
2023-12-29T12:31:57.866Z,45.12
2023-12-29T12:34:44.032Z,44.96
2023-12-29T12:37:30.882Z,44.76
2023-12-29T12:40:28.537Z,44.72
2023-12-29T12:43:16.930Z,44.56
2023-12-29T12:46:11.170Z,44.50
2023-12-29T12:48:57.295Z,44.29
2023-12-29T12:51:44.038Z,44.15
2023-12-29T12:54:30.138Z,43.76
2023-12-29T12:57:20.412Z,43.81
2023-12-29T13:00:07.414Z,43.96
2023-12-29T13:02:53.727Z,43.76
2023-12-29T13:05:40.301Z,44.06
2023-12-29T13:08:34.344Z,43.47
2023-12-29T13:11:26.762Z,43.83
2023-12-29T13:14:23.969Z,43.85
2023-12-29T13:17:13.982Z,44.11
2023-12-29T13:20:00.569Z,44.11
2023-12-29T13:22:52.663Z,44.17
2023-12-29T13:25:40.829Z,44.03
2023-12-29T13:28:27.719Z,44.38
2023-12-29T13:31:14.793Z,44.34
2023-12-29T13:34:05.724Z,44.68
2023-12-29T13:36:56.390Z,44.73
2023-12-29T13:40:11.390Z,44.70
2023-12-29T13:43:00.460Z,44.81
2023-12-29T13:45:47.265Z,44.91
2023-12-29T13:48:33.757Z,44.58
2023-12-29T13:51:24.824Z,44.57
2023-12-29T13:54:11.110Z,44.33
2023-12-29T13:56:57.301Z,44.37
2023-12-29T13:59:44.482Z,44.55
2023-12-29T14:02:33.699Z,44.01
2023-12-29T14:05:45.547Z,44.07
2023-12-29T14:08:35.702Z,43.76
2023-12-29T14:11:22.034Z,43.66
2023-12-29T14:14:08.182Z,43.82
2023-12-29T14:16:55.282Z,43.35
2023-12-29T14:19:42.707Z,43.52
2023-12-29T14:22:28.924Z,43.54
2023-12-29T14:25:14.877Z,43.68
2023-12-29T14:28:02.278Z,43.33
2023-12-29T14:30:48.295Z,43.74
2023-12-29T14:33:34.431Z,43.81
2023-12-29T14:36:20.693Z,43.50
2023-12-29T14:39:07.398Z,43.91
2023-12-29T14:41:54.394Z,43.76
2023-12-29T14:44:40.680Z,43.63
2023-12-29T14:47:26.524Z,43.57
2023-12-29T14:50:13.025Z,43.73
2023-12-29T14:53:00.396Z,44.00
2023-12-29T14:55:46.618Z,43.84
2023-12-29T14:58:33.608Z,43.95
2023-12-29T15:01:20.014Z,43.91
2023-12-29T15:04:07.462Z,43.86
2023-12-29T15:06:54.190Z,43.79
2023-12-29T15:09:41.361Z,43.96
2023-12-29T15:12:27.251Z,43.93
2023-12-29T15:15:14.486Z,43.81
2023-12-29T15:18:01.734Z,43.96
2023-12-29T15:21:03.108Z,43.79
2023-12-29T15:23:49.328Z,43.79
2023-12-29T15:26:35.432Z,43.88
2023-12-29T15:29:21.665Z,43.69
2023-12-29T15:32:08.187Z,43.92
2023-12-29T15:34:54.290Z,44.06
2023-12-29T15:37:40.197Z,43.90
2023-12-29T15:40:26.579Z,44.00
2023-12-29T15:43:12.855Z,43.94
2023-12-29T15:45:58.820Z,44.11
2023-12-29T15:48:47.515Z,43.78
2023-12-29T15:51:33.872Z,44.00
2023-12-29T15:54:20.010Z,44.23
2023-12-29T15:57:09.152Z,44.13
2023-12-29T15:59:55.847Z,44.07
2023-12-29T16:02:41.874Z,44.26
2023-12-29T16:05:28.050Z,43.83
2023-12-29T16:08:14.259Z,44.00
2023-12-29T16:11:00.343Z,44.28
2023-12-29T16:13:46.577Z,44.07
2023-12-29T16:16:33.197Z,44.15
2023-12-29T16:19:19.285Z,44.23
2023-12-29T16:22:05.301Z,44.40
2023-12-29T16:24:52.609Z,44.20
2023-12-29T16:27:38.763Z,44.44
2023-12-29T16:30:25.150Z,44.39
2023-12-29T16:33:11.946Z,44.30
2023-12-29T16:35:58.167Z,44.37
2023-12-29T16:38:48.945Z,44.49
2023-12-29T16:41:35.630Z,44.24
2023-12-29T16:44:21.852Z,44.45
2023-12-29T16:47:07.895Z,44.56
2023-12-29T16:49:54.188Z,44.62
2023-12-29T16:52:40.441Z,44.49
2023-12-29T16:55:26.667Z,44.53
2023-12-29T16:58:12.844Z,44.46
2023-12-29T17:00:58.888Z,44.67
2023-12-29T17:03:47.308Z,44.39
2023-12-29T17:06:33.532Z,44.50
2023-12-29T17:09:19.635Z,44.22
2023-12-29T17:12:05.973Z,44.60
2023-12-29T17:14:52.116Z,44.40
2023-12-29T17:17:37.989Z,44.93
2023-12-29T17:20:24.218Z,44.48
2023-12-29T17:23:10.482Z,44.75
2023-12-29T17:25:59.903Z,44.51
2023-12-29T17:28:46.492Z,44.49
2023-12-29T17:31:32.665Z,44.51
2023-12-29T17:34:19.021Z,44.95
2023-12-29T17:37:05.344Z,45.01
2023-12-29T17:39:51.126Z,44.61
2023-12-29T17:42:37.222Z,45.05
2023-12-29T17:45:23.332Z,44.88
2023-12-29T17:48:09.404Z,45.00
2023-12-29T17:50:55.454Z,45.05
2023-12-29T17:53:45.131Z,45.14
2023-12-29T17:56:31.838Z,45.32
2023-12-29T17:59:20.858Z,45.30
2023-12-29T18:02:07.157Z,45.28
2023-12-29T18:04:57.591Z,45.04
2023-12-29T18:07:47.872Z,44.81
2023-12-29T18:10:34.965Z,45.08
2023-12-29T18:13:22.025Z,45.20
2023-12-29T18:16:10.977Z,45.34
2023-12-29T18:18:57.097Z,45.46
2023-12-29T18:21:43.061Z,45.60
2023-12-29T18:24:29.796Z,45.15
2023-12-29T18:27:16.665Z,45.23
2023-12-29T18:30:04.324Z,45.45
2023-12-29T18:32:51.344Z,45.12
2023-12-29T18:35:39.898Z,45.30
2023-12-29T18:38:26.012Z,45.21
2023-12-29T18:41:11.974Z,44.85
2023-12-29T18:43:58.260Z,45.19
2023-12-29T18:46:44.100Z,44.88
2023-12-29T18:49:31.344Z,44.94
2023-12-29T18:52:18.641Z,44.97
2023-12-29T18:55:06.209Z,44.90
2023-12-29T18:57:52.377Z,44.82
2023-12-29T19:00:38.478Z,44.99
2023-12-29T19:03:25.466Z,45.05
2023-12-29T19:06:11.244Z,45.22
2023-12-29T19:08:57.349Z,45.14
2023-12-29T19:11:44.943Z,44.79
2023-12-29T19:14:31.558Z,44.98
2023-12-29T19:17:17.485Z,44.91
2023-12-29T19:20:05.333Z,44.78
2023-12-29T19:22:51.189Z,45.03
2023-12-29T19:25:37.342Z,44.91
2023-12-29T19:28:23.672Z,45.23
2023-12-29T19:31:10.381Z,45.22
2023-12-29T19:33:56.762Z,45.24
2023-12-29T19:36:42.699Z,45.37
2023-12-29T19:39:28.901Z,44.99
2023-12-29T19:42:15.336Z,45.23
2023-12-29T19:45:09.316Z,45.36
2023-12-29T19:48:00.074Z,45.23
2023-12-29T19:50:46.748Z,45.36
2023-12-29T19:53:32.592Z,45.15
2023-12-29T19:56:27.269Z,45.46
2023-12-29T19:59:13.776Z,44.89
2023-12-29T20:01:59.860Z,45.61
2023-12-29T20:04:46.184Z,45.00
2023-12-29T20:07:32.707Z,45.51
2023-12-29T20:10:19.507Z,45.23
2023-12-29T20:13:06.233Z,45.70
2023-12-29T20:16:10.960Z,45.80
2023-12-29T20:18:57.373Z,45.72
2023-12-29T20:21:44.246Z,45.61
2023-12-29T20:24:30.254Z,45.85
2023-12-29T20:27:16.600Z,45.73
2023-12-29T20:30:39.063Z,45.37
2023-12-29T20:33:28.071Z,45.43
2023-12-29T20:36:14.188Z,45.04
2023-12-29T20:39:30.391Z,44.99
2023-12-29T20:42:16.315Z,44.94
2023-12-29T20:45:02.359Z,44.86
2023-12-29T20:49:31.472Z,45.62
2023-12-29T20:57:40.034Z,45.15
2023-12-29T21:01:43.884Z,45.73
2023-12-29T21:04:29.818Z,45.15
2023-12-29T21:07:15.825Z,45.02
2023-12-29T21:10:37.919Z,45.79
2023-12-29T21:13:25.373Z,45.35
2023-12-29T21:16:16.809Z,45.04
2023-12-29T21:19:22.254Z,45.88
2023-12-29T21:22:08.304Z,45.48
2023-12-29T21:24:54.589Z,45.57
2023-12-29T21:28:47.821Z,46.26
2023-12-29T21:31:33.952Z,45.87
2023-12-29T21:34:20.701Z,45.14
2023-12-29T21:38:49.356Z,46.52
2023-12-29T21:43:19.392Z,46.51
2023-12-29T21:47:43.595Z,45.77
2023-12-29T21:57:00.332Z,46.48
2023-12-29T21:59:46.200Z,46.01
2023-12-29T22:02:32.025Z,46.57
2023-12-29T22:06:34.958Z,45.78
2023-12-29T22:09:20.916Z,46.02
2023-12-29T22:12:09.550Z,45.78
2023-12-29T22:14:55.691Z,45.82
2023-12-29T22:18:04.900Z,45.82
2023-12-29T22:20:52.020Z,46.42
2023-12-29T22:23:39.632Z,45.88
2023-12-29T22:26:25.660Z,45.67
2023-12-29T22:29:21.211Z,46.03
2023-12-29T22:32:07.463Z,45.72
2023-12-29T22:34:54.879Z,45.99
2023-12-29T22:37:44.970Z,45.59
2023-12-29T22:40:34.447Z,45.59
2023-12-29T22:43:22.015Z,46.39
2023-12-29T22:55:24.153Z,46.28
2023-12-29T22:58:10.522Z,45.99
2023-12-29T23:00:57.366Z,46.03
2023-12-29T23:03:44.159Z,45.66
2023-12-29T23:06:30.168Z,45.19
2023-12-29T23:09:17.151Z,45.66
2023-12-29T23:12:05.818Z,45.62
2023-12-29T23:14:52.529Z,45.68
2023-12-29T23:17:38.551Z,45.94
2023-12-29T23:20:24.588Z,45.85
2023-12-29T23:23:12.730Z,45.60
2023-12-29T23:25:58.716Z,45.65
2023-12-29T23:28:45.159Z,45.75
2023-12-29T23:31:31.724Z,45.69
2023-12-29T23:34:19.517Z,45.71
2023-12-29T23:37:05.622Z,45.87
2023-12-29T23:39:59.058Z,45.97
2023-12-29T23:42:45.812Z,47.08
2023-12-29T23:45:34.594Z,46.04
2023-12-29T23:48:20.984Z,46.13
2023-12-29T23:51:07.139Z,46.07
2023-12-29T23:53:54.386Z,46.09
2023-12-29T23:56:41.028Z,45.67
2023-12-29T23:59:26.741Z,45.96
